createdAt,value
2023-09-05T00:12:01.791Z,6.47
2023-09-05T00:42:03.669Z,6.17
2023-09-05T01:12:05.649Z,5.70
2023-09-05T01:42:07.186Z,6.53
2023-09-05T02:12:10.102Z,8.35
2023-09-05T02:42:11.802Z,10.83
2023-09-05T03:12:13.614Z,10.80
2023-09-05T03:42:19.720Z,8.80
2023-09-05T04:12:21.546Z,11.00
2023-09-05T04:42:24.162Z,8.40
2023-09-05T05:12:26.340Z,11.23
2023-09-05T05:42:28.358Z,9.83
2023-09-05T06:12:31.491Z,12.83
2023-09-05T06:42:33.067Z,9.63
2023-09-05T07:12:35.057Z,6.80
2023-09-05T07:42:36.611Z,7.10
2023-09-05T08:12:39.560Z,4.43
2023-09-05T08:42:41.166Z,4.73
2023-09-05T09:12:43.373Z,3.20
2023-09-05T09:42:44.954Z,3.10
2023-09-05T10:12:47.758Z,3.10
2023-09-05T10:42:49.413Z,2.63
2023-09-05T11:12:51.289Z,2.70
2023-09-05T12:13:44.845Z,2.10
2023-09-05T12:43:46.891Z,2.47
2023-09-05T14:16:58.030Z,1.70
2023-09-05T15:17:45.892Z,2.03
2023-09-05T15:47:47.974Z,2.40
2023-09-05T16:17:50.402Z,3.70
2023-09-05T16:47:52.715Z,3.57
2023-09-05T18:24:11.176Z,4.20
2023-09-05T18:54:15.587Z,4.00
2023-09-05T19:24:19.007Z,5.47
2023-09-05T19:54:23.025Z,5.67
2023-09-05T20:24:26.221Z,7.00
2023-09-05T20:54:30.668Z,7.00
2023-09-05T21:24:34.075Z,6.93
2023-09-05T21:54:37.958Z,6.00
2023-09-05T22:24:41.048Z,6.53
2023-09-05T22:54:44.642Z,6.40
2023-09-05T23:24:47.877Z,7.60
2023-09-05T23:54:51.390Z,6.45
